sensor_id;sensor_type;location;lat;lon;timestamp;temperature;humidity
10175;DHT22;18221;38.704;0.152;2023-03-11T00:05:06;19.50;99.90
10175;DHT22;18221;38.704;0.152;2023-03-11T00:07:35;19.50;99.90
10175;DHT22;18221;38.704;0.152;2023-03-11T00:10:06;19.40;99.90
10175;DHT22;18221;38.704;0.152;2023-03-11T00:12:44;19.40;99.90
10175;DHT22;18221;38.704;0.152;2023-03-11T00:15:12;19.40;99.90
10175;DHT22;18221;38.704;0.152;2023-03-11T00:17:41;19.40;99.90
10175;DHT22;18221;38.704;0.152;2023-03-11T00:20:16;19.40;99.90
10175;DHT22;18221;38.704;0.152;2023-03-11T00:22:45;19.40;99.90
10175;DHT22;18221;38.704;0.152;2023-03-11T00:25:14;19.40;99.90
10175;DHT22;18221;38.704;0.152;2023-03-11T00:27:42;19.40;99.90
10175;DHT22;18221;38.704;0.152;2023-03-11T00:30:12;19.40;99.90
10175;DHT22;18221;38.704;0.152;2023-03-11T00:32:41;19.40;99.90
10175;DHT22;18221;38.704;0.152;2023-03-11T00:35:12;19.30;99.90
10175;DHT22;18221;38.704;0.152;2023-03-11T00:37:43;19.30;99.90
10175;DHT22;18221;38.704;0.152;2023-03-11T00:40:15;19.30;99.90
10175;DHT22;18221;38.704;0.152;2023-03-11T00:42:44;19.30;99.90
10175;DHT22;18221;38.704;0.152;2023-03-11T00:45:13;19.40;99.90
10175;DHT22;18221;38.704;0.152;2023-03-11T00:47:42;19.40;99.90
10175;DHT22;18221;38.704;0.152;2023-03-11T00:50:15;19.50;99.90
10175;DHT22;18221;38.704;0.152;2023-03-11T00:52:46;19.50;99.90
10175;DHT22;18221;38.704;0.152;2023-03-11T00:55:16;19.50;99.90
10175;DHT22;18221;38.704;0.152;2023-03-11T00:57:46;19.40;99.90
10175;DHT22;18221;38.704;0.152;2023-03-11T01:00:16;19.40;99.90
10175;DHT22;18221;38.704;0.152;2023-03-11T01:02:46;19.50;99.90
10175;DHT22;18221;38.704;0.152;2023-03-11T01:05:17;19.50;99.90
10175;DHT22;18221;38.704;0.152;2023-03-11T01:07:46;19.50;99.90
10175;DHT22;18221;38.704;0.152;2023-03-11T01:12:44;19.40;99.90
10175;DHT22;18221;38.704;0.152;2023-03-11T01:15:17;19.40;99.90
10175;DHT22;18221;38.704;0.152;2023-03-11T01:17:47;19.40;99.90
10175;DHT22;18221;38.704;0.152;2023-03-11T01:20:18;19.40;99.90
10175;DHT22;18221;38.704;0.152;2023-03-11T01:22:47;19.40;99.90
10175;DHT22;18221;38.704;0.152;2023-03-11T01:25:17;19.40;99.90
10175;DHT22;18221;38.704;0.152;2023-03-11T01:27:46;19.40;99.90
10175;DHT22;18221;38.704;0.152;2023-03-11T01:30:17;19.80;99.90
10175;DHT22;18221;38.704;0.152;2023-03-11T01:32:47;19.40;99.90
10175;DHT22;18221;38.704;0.152;2023-03-11T01:35:17;19.40;99.90
10175;DHT22;18221;38.704;0.152;2023-03-11T01:37:48;19.40;99.90
10175;DHT22;18221;38.704;0.152;2023-03-11T01:40:20;19.40;99.90
10175;DHT22;18221;38.704;0.152;2023-03-11T01:42:53;19.40;99.90
10175;DHT22;18221;38.704;0.152;2023-03-11T01:45:40;19.40;99.90
10175;DHT22;18221;38.704;0.152;2023-03-11T01:48:10;19.40;99.90
10175;DHT22;18221;38.704;0.152;2023-03-11T01:50:42;19.40;99.90
10175;DHT22;18221;38.704;0.152;2023-03-11T01:53:14;19.40;99.90
10175;DHT22;18221;38.704;0.152;2023-03-11T01:55:46;19.40;99.90
10175;DHT22;18221;38.704;0.152;2023-03-11T01:58:17;19.30;99.90
10175;DHT22;18221;38.704;0.152;2023-03-11T02:00:50;19.40;99.90
10175;DHT22;18221;38.704;0.152;2023-03-11T02:03:23;19.40;99.90
10175;DHT22;18221;38.704;0.152;2023-03-11T02:05:57;19.40;99.90
10175;DHT22;18221;38.704;0.152;2023-03-11T02:08:28;19.40;99.90
10175;DHT22;18221;38.704;0.152;2023-03-11T02:10:59;19.40;99.90
10175;DHT22;18221;38.704;0.152;2023-03-11T02:13:31;19.40;99.90
10175;DHT22;18221;38.704;0.152;2023-03-11T02:16:02;19.40;99.90
10175;DHT22;18221;38.704;0.152;2023-03-11T02:18:31;19.40;99.90
10175;DHT22;18221;38.704;0.152;2023-03-11T02:21:05;19.30;99.90
10175;DHT22;18221;38.704;0.152;2023-03-11T02:23:46;19.30;99.90
10175;DHT22;18221;38.704;0.152;2023-03-11T02:26:24;19.20;99.90
10175;DHT22;18221;38.704;0.152;2023-03-11T02:29:02;19.10;99.90
10175;DHT22;18221;38.704;0.152;2023-03-11T02:31:35;19.10;99.90
10175;DHT22;18221;38.704;0.152;2023-03-11T02:34:07;19.00;99.90
10175;DHT22;18221;38.704;0.152;2023-03-11T02:36:42;18.90;99.90
10175;DHT22;18221;38.704;0.152;2023-03-11T02:39:10;19.00;99.90
10175;DHT22;18221;38.704;0.152;2023-03-11T02:41:40;19.00;99.90
10175;DHT22;18221;38.704;0.152;2023-03-11T02:44:15;19.00;99.90
10175;DHT22;18221;38.704;0.152;2023-03-11T02:46:44;19.10;99.90
10175;DHT22;18221;38.704;0.152;2023-03-11T02:49:14;19.10;99.90
10175;DHT22;18221;38.704;0.152;2023-03-11T02:51:43;19.00;99.90
10175;DHT22;18221;38.704;0.152;2023-03-11T02:54:11;19.00;99.90
10175;DHT22;18221;38.704;0.152;2023-03-11T02:56:39;19.00;99.90
10175;DHT22;18221;38.704;0.152;2023-03-11T02:59:07;19.00;99.90
10175;DHT22;18221;38.704;0.152;2023-03-11T03:01:37;18.90;99.90
10175;DHT22;18221;38.704;0.152;2023-03-11T03:04:06;18.90;99.90
10175;DHT22;18221;38.704;0.152;2023-03-11T03:06:34;18.90;99.90
10175;DHT22;18221;38.704;0.152;2023-03-11T03:09:02;19.00;99.90
10175;DHT22;18221;38.704;0.152;2023-03-11T03:11:30;19.00;99.90
10175;DHT22;18221;38.704;0.152;2023-03-11T03:13:59;19.10;99.90
10175;DHT22;18221;38.704;0.152;2023-03-11T03:16:27;19.20;99.90
10175;DHT22;18221;38.704;0.152;2023-03-11T03:18:56;19.20;99.90
10175;DHT22;18221;38.704;0.152;2023-03-11T03:21:25;19.30;99.90
10175;DHT22;18221;38.704;0.152;2023-03-11T03:23:53;19.30;99.90
10175;DHT22;18221;38.704;0.152;2023-03-11T03:26:21;19.30;99.90
10175;DHT22;18221;38.704;0.152;2023-03-11T03:28:49;19.20;99.90
10175;DHT22;18221;38.704;0.152;2023-03-11T03:31:18;19.10;99.90
10175;DHT22;18221;38.704;0.152;2023-03-11T03:33:47;19.10;99.90
10175;DHT22;18221;38.704;0.152;2023-03-11T03:36:17;19.10;99.90
10175;DHT22;18221;38.704;0.152;2023-03-11T03:38:46;19.10;99.90
10175;DHT22;18221;38.704;0.152;2023-03-11T03:41:14;19.20;99.90
10175;DHT22;18221;38.704;0.152;2023-03-11T03:43:42;19.20;99.90
10175;DHT22;18221;38.704;0.152;2023-03-11T03:46:10;19.20;99.90
10175;DHT22;18221;38.704;0.152;2023-03-11T03:48:38;19.10;99.90
10175;DHT22;18221;38.704;0.152;2023-03-11T03:51:08;19.10;99.90
10175;DHT22;18221;38.704;0.152;2023-03-11T03:53:40;19.00;99.90
10175;DHT22;18221;38.704;0.152;2023-03-11T03:56:09;19.00;99.90
10175;DHT22;18221;38.704;0.152;2023-03-11T03:58:39;19.00;99.90
10175;DHT22;18221;38.704;0.152;2023-03-11T04:01:08;19.00;99.90
10175;DHT22;18221;38.704;0.152;2023-03-11T04:03:38;18.60;99.90
10175;DHT22;18221;38.704;0.152;2023-03-11T04:06:08;19.00;99.90
10175;DHT22;18221;38.704;0.152;2023-03-11T04:08:39;19.10;99.90
10175;DHT22;18221;38.704;0.152;2023-03-11T04:11:07;19.10;99.90
10175;DHT22;18221;38.704;0.152;2023-03-11T04:13:36;19.20;99.90
10175;DHT22;18221;38.704;0.152;2023-03-11T04:16:05;19.30;99.90
10175;DHT22;18221;38.704;0.152;2023-03-11T04:18:34;19.30;99.90
10175;DHT22;18221;38.704;0.152;2023-03-11T04:21:04;19.30;99.90
10175;DHT22;18221;38.704;0.152;2023-03-11T04:23:33;19.40;99.90
10175;DHT22;18221;38.704;0.152;2023-03-11T04:26:03;19.40;99.90
10175;DHT22;18221;38.704;0.152;2023-03-11T04:28:32;19.40;99.90
10175;DHT22;18221;38.704;0.152;2023-03-11T04:31:00;19.40;99.90
10175;DHT22;18221;38.704;0.152;2023-03-11T04:33:28;19.30;99.90
10175;DHT22;18221;38.704;0.152;2023-03-11T04:35:56;19.40;99.90
10175;DHT22;18221;38.704;0.152;2023-03-11T04:38:25;19.40;99.90
10175;DHT22;18221;38.704;0.152;2023-03-11T04:40:53;19.30;99.90
10175;DHT22;18221;38.704;0.152;2023-03-11T04:43:27;19.10;99.90
10175;DHT22;18221;38.704;0.152;2023-03-11T04:45:55;19.30;99.90
10175;DHT22;18221;38.704;0.152;2023-03-11T04:48:23;19.30;99.90
10175;DHT22;18221;38.704;0.152;2023-03-11T04:50:53;19.30;99.90
10175;DHT22;18221;38.704;0.152;2023-03-11T04:53:21;19.30;99.90
10175;DHT22;18221;38.704;0.152;2023-03-11T04:55:50;19.20;99.90
10175;DHT22;18221;38.704;0.152;2023-03-11T04:58:18;19.20;99.90
10175;DHT22;18221;38.704;0.152;2023-03-11T05:00:48;19.10;99.90
10175;DHT22;18221;38.704;0.152;2023-03-11T05:03:16;19.20;99.90
10175;DHT22;18221;38.704;0.152;2023-03-11T05:05:44;19.30;99.90
10175;DHT22;18221;38.704;0.152;2023-03-11T05:08:12;19.30;99.90
10175;DHT22;18221;38.704;0.152;2023-03-11T05:10:41;19.30;99.90
10175;DHT22;18221;38.704;0.152;2023-03-11T05:13:09;19.30;99.90
10175;DHT22;18221;38.704;0.152;2023-03-11T05:15:37;19.30;99.90
10175;DHT22;18221;38.704;0.152;2023-03-11T05:18:08;19.30;99.90
10175;DHT22;18221;38.704;0.152;2023-03-11T05:20:36;19.30;99.90
10175;DHT22;18221;38.704;0.152;2023-03-11T05:23:05;19.30;99.90
10175;DHT22;18221;38.704;0.152;2023-03-11T05:25:33;19.30;99.90
10175;DHT22;18221;38.704;0.152;2023-03-11T05:28:01;19.30;99.90
10175;DHT22;18221;38.704;0.152;2023-03-11T05:30:30;19.20;99.90
10175;DHT22;18221;38.704;0.152;2023-03-11T05:32:58;19.20;99.90
10175;DHT22;18221;38.704;0.152;2023-03-11T05:35:28;19.10;99.90
10175;DHT22;18221;38.704;0.152;2023-03-11T05:37:56;19.00;99.90
10175;DHT22;18221;38.704;0.152;2023-03-11T05:40:24;18.90;99.90
10175;DHT22;18221;38.704;0.152;2023-03-11T05:42:52;18.80;99.90
10175;DHT22;18221;38.704;0.152;2023-03-11T05:45:20;18.80;99.90
10175;DHT22;18221;38.704;0.152;2023-03-11T05:47:50;18.80;99.90
10175;DHT22;18221;38.704;0.152;2023-03-11T05:50:18;18.70;99.90
10175;DHT22;18221;38.704;0.152;2023-03-11T05:52:48;18.60;99.90
10175;DHT22;18221;38.704;0.152;2023-03-11T05:55:16;18.60;99.90
10175;DHT22;18221;38.704;0.152;2023-03-11T05:57:44;18.40;99.90
10175;DHT22;18221;38.704;0.152;2023-03-11T06:00:13;18.40;99.90
10175;DHT22;18221;38.704;0.152;2023-03-11T06:02:42;18.30;99.90
10175;DHT22;18221;38.704;0.152;2023-03-11T06:05:10;18.10;99.90
10175;DHT22;18221;38.704;0.152;2023-03-11T06:07:38;18.00;99.90
10175;DHT22;18221;38.704;0.152;2023-03-11T06:10:09;17.90;99.90
10175;DHT22;18221;38.704;0.152;2023-03-11T06:12:38;17.80;99.90
10175;DHT22;18221;38.704;0.152;2023-03-11T06:15:07;17.80;99.90
10175;DHT22;18221;38.704;0.152;2023-03-11T06:17:36;17.80;99.90
10175;DHT22;18221;38.704;0.152;2023-03-11T06:20:05;17.90;99.90
10175;DHT22;18221;38.704;0.152;2023-03-11T06:22:34;17.90;99.90
10175;DHT22;18221;38.704;0.152;2023-03-11T06:25:02;17.90;99.90
10175;DHT22;18221;38.704;0.152;2023-03-11T06:27:32;18.00;99.90
10175;DHT22;18221;38.704;0.152;2023-03-11T06:30:00;18.00;99.90
10175;DHT22;18221;38.704;0.152;2023-03-11T06:32:29;17.90;99.90
10175;DHT22;18221;38.704;0.152;2023-03-11T06:34:57;17.90;99.90
10175;DHT22;18221;38.704;0.152;2023-03-11T06:37:25;17.80;99.90
10175;DHT22;18221;38.704;0.152;2023-03-11T06:39:54;17.90;99.90
10175;DHT22;18221;38.704;0.152;2023-03-11T06:42:22;18.00;99.90
10175;DHT22;18221;38.704;0.152;2023-03-11T06:44:53;18.00;99.90
10175;DHT22;18221;38.704;0.152;2023-03-11T06:47:21;18.10;99.90
10175;DHT22;18221;38.704;0.152;2023-03-11T06:49:49;18.10;99.90
10175;DHT22;18221;38.704;0.152;2023-03-11T06:52:18;18.20;99.90
10175;DHT22;18221;38.704;0.152;2023-03-11T06:54:46;18.20;99.90
10175;DHT22;18221;38.704;0.152;2023-03-11T06:57:15;18.20;99.90
10175;DHT22;18221;38.704;0.152;2023-03-11T06:59:43;18.20;99.90
10175;DHT22;18221;38.704;0.152;2023-03-11T07:02:13;18.30;99.90
10175;DHT22;18221;38.704;0.152;2023-03-11T07:04:41;18.40;99.90
10175;DHT22;18221;38.704;0.152;2023-03-11T07:07:09;19.40;99.90
10175;DHT22;18221;38.704;0.152;2023-03-11T07:09:38;18.40;99.90
10175;DHT22;18221;38.704;0.152;2023-03-11T07:12:07;18.30;99.90
10175;DHT22;18221;38.704;0.152;2023-03-11T07:14:36;18.30;99.90
10175;DHT22;18221;38.704;0.152;2023-03-11T07:17:04;18.20;99.90
10175;DHT22;18221;38.704;0.152;2023-03-11T07:19:33;18.20;99.90
10175;DHT22;18221;38.704;0.152;2023-03-11T07:22:02;18.30;99.90
10175;DHT22;18221;38.704;0.152;2023-03-11T07:24:30;18.30;99.90
10175;DHT22;18221;38.704;0.152;2023-03-11T07:26:58;18.30;99.90
10175;DHT22;18221;38.704;0.152;2023-03-11T07:29:26;18.30;99.90
10175;DHT22;18221;38.704;0.152;2023-03-11T07:31:54;18.30;99.90
10175;DHT22;18221;38.704;0.152;2023-03-11T07:34:22;18.30;99.90
10175;DHT22;18221;38.704;0.152;2023-03-11T07:36:52;18.40;99.90
10175;DHT22;18221;38.704;0.152;2023-03-11T07:39:20;18.40;99.90
10175;DHT22;18221;38.704;0.152;2023-03-11T07:41:48;18.40;99.90
10175;DHT22;18221;38.704;0.152;2023-03-11T07:44:17;18.50;99.90
10175;DHT22;18221;38.704;0.152;2023-03-11T07:46:46;18.60;99.90
10175;DHT22;18221;38.704;0.152;2023-03-11T07:49:14;18.60;99.90
10175;DHT22;18221;38.704;0.152;2023-03-11T07:51:42;18.60;99.90
10175;DHT22;18221;38.704;0.152;2023-03-11T07:54:12;18.70;99.90
10175;DHT22;18221;38.704;0.152;2023-03-11T07:56:40;18.80;99.90
10175;DHT22;18221;38.704;0.152;2023-03-11T07:59:09;18.80;99.90
10175;DHT22;18221;38.704;0.152;2023-03-11T08:01:37;18.80;99.90
10175;DHT22;18221;38.704;0.152;2023-03-11T08:04:07;18.90;99.90
10175;DHT22;18221;38.704;0.152;2023-03-11T08:06:37;18.90;99.90
10175;DHT22;18221;38.704;0.152;2023-03-11T08:09:08;18.90;99.90
10175;DHT22;18221;38.704;0.152;2023-03-11T08:11:38;19.00;99.90
10175;DHT22;18221;38.704;0.152;2023-03-11T08:14:06;19.10;99.90
10175;DHT22;18221;38.704;0.152;2023-03-11T08:16:35;19.20;99.90
10175;DHT22;18221;38.704;0.152;2023-03-11T08:19:05;19.20;99.90
10175;DHT22;18221;38.704;0.152;2023-03-11T08:21:34;19.20;99.90
10175;DHT22;18221;38.704;0.152;2023-03-11T08:24:02;19.30;99.90
10175;DHT22;18221;38.704;0.152;2023-03-11T08:26:31;19.30;99.90
10175;DHT22;18221;38.704;0.152;2023-03-11T08:29:03;19.30;99.90
10175;DHT22;18221;38.704;0.152;2023-03-11T08:31:33;19.40;99.90
10175;DHT22;18221;38.704;0.152;2023-03-11T08:34:04;19.40;99.90
10175;DHT22;18221;38.704;0.152;2023-03-11T08:36:34;19.50;99.90
10175;DHT22;18221;38.704;0.152;2023-03-11T08:39:02;19.50;99.90
10175;DHT22;18221;38.704;0.152;2023-03-11T08:41:31;19.50;99.90
10175;DHT22;18221;38.704;0.152;2023-03-11T08:44:00;19.60;99.90
10175;DHT22;18221;38.704;0.152;2023-03-11T08:46:31;19.60;99.90
10175;DHT22;18221;38.704;0.152;2023-03-11T08:49:01;19.70;99.90
10175;DHT22;18221;38.704;0.152;2023-03-11T08:51:31;19.80;99.90
10175;DHT22;18221;38.704;0.152;2023-03-11T08:54:00;19.80;99.90
10175;DHT22;18221;38.704;0.152;2023-03-11T08:56:29;19.80;99.90
10175;DHT22;18221;38.704;0.152;2023-03-11T08:58:58;19.90;99.90
10175;DHT22;18221;38.704;0.152;2023-03-11T09:01:26;19.90;99.90
10175;DHT22;18221;38.704;0.152;2023-03-11T09:03:56;19.90;99.90
10175;DHT22;18221;38.704;0.152;2023-03-11T09:06:25;19.90;99.90
10175;DHT22;18221;38.704;0.152;2023-03-11T09:08:55;20.00;99.90
10175;DHT22;18221;38.704;0.152;2023-03-11T09:11:25;20.00;99.90
10175;DHT22;18221;38.704;0.152;2023-03-11T09:13:53;20.00;99.90
10175;DHT22;18221;38.704;0.152;2023-03-11T09:16:22;20.10;99.90
10175;DHT22;18221;38.704;0.152;2023-03-11T09:18:51;20.20;99.90
10175;DHT22;18221;38.704;0.152;2023-03-11T09:21:21;20.20;99.90
10175;DHT22;18221;38.704;0.152;2023-03-11T09:23:49;20.30;99.90
10175;DHT22;18221;38.704;0.152;2023-03-11T09:26:17;20.30;99.90
10175;DHT22;18221;38.704;0.152;2023-03-11T09:28:46;20.40;99.90
10175;DHT22;18221;38.704;0.152;2023-03-11T09:31:15;20.50;99.90
10175;DHT22;18221;38.704;0.152;2023-03-11T09:33:45;20.50;99.90
10175;DHT22;18221;38.704;0.152;2023-03-11T09:36:16;20.50;99.90
10175;DHT22;18221;38.704;0.152;2023-03-11T09:38:48;20.40;99.90
10175;DHT22;18221;38.704;0.152;2023-03-11T09:41:26;20.30;99.90
10175;DHT22;18221;38.704;0.152;2023-03-11T09:44:15;20.10;99.90
10175;DHT22;18221;38.704;0.152;2023-03-11T09:47:06;20.00;99.90
10175;DHT22;18221;38.704;0.152;2023-03-11T09:50:08;19.90;99.90
10175;DHT22;18221;38.704;0.152;2023-03-11T09:52:48;19.90;99.90
10175;DHT22;18221;38.704;0.152;2023-03-11T09:55:37;20.00;99.90
10175;DHT22;18221;38.704;0.152;2023-03-11T09:58:12;20.00;99.90
10175;DHT22;18221;38.704;0.152;2023-03-11T10:00:46;20.00;99.90
10175;DHT22;18221;38.704;0.152;2023-03-11T10:03:38;20.10;99.90
10175;DHT22;18221;38.704;0.152;2023-03-11T10:06:16;20.10;99.90
10175;DHT22;18221;38.704;0.152;2023-03-11T10:08:54;20.10;99.90
10175;DHT22;18221;38.704;0.152;2023-03-11T10:11:37;20.10;99.90
10175;DHT22;18221;38.704;0.152;2023-03-11T10:14:40;20.20;99.90
10175;DHT22;18221;38.704;0.152;2023-03-11T10:17:38;20.30;99.90
10175;DHT22;18221;38.704;0.152;2023-03-11T10:20:19;20.30;99.90
10175;DHT22;18221;38.704;0.152;2023-03-11T10:22:59;20.30;99.90
10175;DHT22;18221;38.704;0.152;2023-03-11T10:25:45;20.30;99.90
10175;DHT22;18221;38.704;0.152;2023-03-11T10:28:26;20.40;99.90
10175;DHT22;18221;38.704;0.152;2023-03-11T10:31:04;20.40;99.90
10175;DHT22;18221;38.704;0.152;2023-03-11T10:33:49;20.50;99.90
10175;DHT22;18221;38.704;0.152;2023-03-11T10:36:23;20.60;99.90
10175;DHT22;18221;38.704;0.152;2023-03-11T10:38:54;20.70;99.90
10175;DHT22;18221;38.704;0.152;2023-03-11T10:41:28;20.90;99.90
10175;DHT22;18221;38.704;0.152;2023-03-11T10:44:08;20.90;99.90
10175;DHT22;18221;38.704;0.152;2023-03-11T10:46:40;21.00;99.90
10175;DHT22;18221;38.704;0.152;2023-03-11T10:49:13;21.00;99.90
10175;DHT22;18221;38.704;0.152;2023-03-11T10:51:45;20.90;99.90
10175;DHT22;18221;38.704;0.152;2023-03-11T10:54:25;21.00;99.90
10175;DHT22;18221;38.704;0.152;2023-03-11T10:56:57;21.10;99.90
10175;DHT22;18221;38.704;0.152;2023-03-11T10:59:29;21.20;99.90
10175;DHT22;18221;38.704;0.152;2023-03-11T11:02:01;21.20;99.90
10175;DHT22;18221;38.704;0.152;2023-03-11T11:04:48;21.30;99.90
10175;DHT22;18221;38.704;0.152;2023-03-11T11:07:48;21.30;99.90
10175;DHT22;18221;38.704;0.152;2023-03-11T11:10:19;21.40;99.90
10175;DHT22;18221;38.704;0.152;2023-03-11T11:12:54;21.50;99.90
10175;DHT22;18221;38.704;0.152;2023-03-11T11:15:28;21.50;99.90
10175;DHT22;18221;38.704;0.152;2023-03-11T11:17:59;21.50;99.90
10175;DHT22;18221;38.704;0.152;2023-03-11T11:20:30;21.60;99.90
10175;DHT22;18221;38.704;0.152;2023-03-11T11:23:01;21.60;99.90
10175;DHT22;18221;38.704;0.152;2023-03-11T11:25:32;21.70;99.90
10175;DHT22;18221;38.704;0.152;2023-03-11T11:28:12;21.60;99.90
10175;DHT22;18221;38.704;0.152;2023-03-11T11:30:53;21.50;99.90
10175;DHT22;18221;38.704;0.152;2023-03-11T11:33:25;21.50;99.90
10175;DHT22;18221;38.704;0.152;2023-03-11T11:35:57;21.30;99.90
10175;DHT22;18221;38.704;0.152;2023-03-11T11:38:28;21.40;99.90
10175;DHT22;18221;38.704;0.152;2023-03-11T11:41:01;21.30;99.90
10175;DHT22;18221;38.704;0.152;2023-03-11T11:43:45;21.40;99.90
10175;DHT22;18221;38.704;0.152;2023-03-11T11:46:24;21.50;99.90
10175;DHT22;18221;38.704;0.152;2023-03-11T11:49:05;21.60;99.90
10175;DHT22;18221;38.704;0.152;2023-03-11T11:51:44;21.60;99.90
10175;DHT22;18221;38.704;0.152;2023-03-11T11:54:19;21.60;99.90
10175;DHT22;18221;38.704;0.152;2023-03-11T11:56:54;21.60;99.90
10175;DHT22;18221;38.704;0.152;2023-03-11T11:59:24;21.70;99.90
10175;DHT22;18221;38.704;0.152;2023-03-11T12:02:02;21.70;99.90
10175;DHT22;18221;38.704;0.152;2023-03-11T12:04:52;21.70;99.90
10175;DHT22;18221;38.704;0.152;2023-03-11T12:07:39;22.00;99.90
10175;DHT22;18221;38.704;0.152;2023-03-11T12:10:22;22.10;99.90
10175;DHT22;18221;38.704;0.152;2023-03-11T12:13:29;22.30;99.90
10175;DHT22;18221;38.704;0.152;2023-03-11T12:16:27;22.40;99.90
10175;DHT22;18221;38.704;0.152;2023-03-11T12:19:13;22.50;99.90
10175;DHT22;18221;38.704;0.152;2023-03-11T12:22:01;22.70;99.90
10175;DHT22;18221;38.704;0.152;2023-03-11T12:25:07;22.90;99.90
10175;DHT22;18221;38.704;0.152;2023-03-11T12:27:58;23.00;99.90
10175;DHT22;18221;38.704;0.152;2023-03-11T12:30:37;22.90;99.90
10175;DHT22;18221;38.704;0.152;2023-03-11T12:33:14;22.80;99.90
10175;DHT22;18221;38.704;0.152;2023-03-11T12:35:53;22.90;99.90
10175;DHT22;18221;38.704;0.152;2023-03-11T12:38:27;22.80;99.90
10175;DHT22;18221;38.704;0.152;2023-03-11T12:41:26;22.70;99.90
10175;DHT22;18221;38.704;0.152;2023-03-11T12:44:21;22.50;99.90
10175;DHT22;18221;38.704;0.152;2023-03-11T12:47:24;22.50;99.90
10175;DHT22;18221;38.704;0.152;2023-03-11T12:49:55;22.60;99.90
10175;DHT22;18221;38.704;0.152;2023-03-11T12:52:54;22.60;99.90
10175;DHT22;18221;38.704;0.152;2023-03-11T12:55:31;22.70;99.90
10175;DHT22;18221;38.704;0.152;2023-03-11T13:04:25;23.30;99.90
10175;DHT22;18221;38.704;0.152;2023-03-11T13:07:34;23.30;99.90
10175;DHT22;18221;38.704;0.152;2023-03-11T13:10:18;23.30;99.90
10175;DHT22;18221;38.704;0.152;2023-03-11T13:13:01;23.30;99.90
10175;DHT22;18221;38.704;0.152;2023-03-11T13:15:49;23.40;99.90
10175;DHT22;18221;38.704;0.152;2023-03-11T13:18:22;23.40;99.90
10175;DHT22;18221;38.704;0.152;2023-03-11T13:20:56;23.50;99.90
10175;DHT22;18221;38.704;0.152;2023-03-11T13:23:33;23.60;99.90
10175;DHT22;18221;38.704;0.152;2023-03-11T13:26:17;23.90;99.90
10175;DHT22;18221;38.704;0.152;2023-03-11T13:32:25;24.10;99.90
10175;DHT22;18221;38.704;0.152;2023-03-11T13:35:10;24.10;99.90
10175;DHT22;18221;38.704;0.152;2023-03-11T13:38:06;24.20;99.90
10175;DHT22;18221;38.704;0.152;2023-03-11T13:40:45;24.30;99.90
10175;DHT22;18221;38.704;0.152;2023-03-11T13:43:17;24.40;99.90
10175;DHT22;18221;38.704;0.152;2023-03-11T13:45:51;24.50;99.90
10175;DHT22;18221;38.704;0.152;2023-03-11T13:48:27;24.50;99.90
10175;DHT22;18221;38.704;0.152;2023-03-11T13:51:00;24.60;99.90
10175;DHT22;18221;38.704;0.152;2023-03-11T13:53:36;24.60;99.90
10175;DHT22;18221;38.704;0.152;2023-03-11T13:56:16;24.60;99.90
10175;DHT22;18221;38.704;0.152;2023-03-11T13:58:49;24.60;99.90
10175;DHT22;18221;38.704;0.152;2023-03-11T14:01:18;24.80;99.90
10175;DHT22;18221;38.704;0.152;2023-03-11T14:03:47;25.00;99.90
10175;DHT22;18221;38.704;0.152;2023-03-11T14:06:17;25.10;99.90
10175;DHT22;18221;38.704;0.152;2023-03-11T14:08:52;25.00;99.90
10175;DHT22;18221;38.704;0.152;2023-03-11T14:11:25;25.10;99.90
10175;DHT22;18221;38.704;0.152;2023-03-11T14:13:56;25.10;99.90
10175;DHT22;18221;38.704;0.152;2023-03-11T14:16:28;25.20;99.90
10175;DHT22;18221;38.704;0.152;2023-03-11T14:19:02;25.30;99.90
10175;DHT22;18221;38.704;0.152;2023-03-11T14:21:34;25.40;99.90
10175;DHT22;18221;38.704;0.152;2023-03-11T14:24:03;25.30;99.90
10175;DHT22;18221;38.704;0.152;2023-03-11T14:26:33;25.30;99.90
10175;DHT22;18221;38.704;0.152;2023-03-11T14:29:09;25.20;99.90
10175;DHT22;18221;38.704;0.152;2023-03-11T14:31:43;25.30;99.90
10175;DHT22;18221;38.704;0.152;2023-03-11T14:34:14;25.30;99.90
10175;DHT22;18221;38.704;0.152;2023-03-11T14:36:45;25.50;99.90
10175;DHT22;18221;38.704;0.152;2023-03-11T14:39:27;25.60;99.90
10175;DHT22;18221;38.704;0.152;2023-03-11T14:42:02;25.80;99.90
10175;DHT22;18221;38.704;0.152;2023-03-11T14:44:37;25.90;99.90
10175;DHT22;18221;38.704;0.152;2023-03-11T14:47:10;26.00;99.90
10175;DHT22;18221;38.704;0.152;2023-03-11T14:49:45;26.10;99.90
10175;DHT22;18221;38.704;0.152;2023-03-11T14:52:18;26.00;99.90
10175;DHT22;18221;38.704;0.152;2023-03-11T14:54:52;25.90;99.90
10175;DHT22;18221;38.704;0.152;2023-03-11T14:57:26;25.90;99.90
10175;DHT22;18221;38.704;0.152;2023-03-11T15:00:14;25.90;99.90
10175;DHT22;18221;38.704;0.152;2023-03-11T15:02:59;25.90;99.90
10175;DHT22;18221;38.704;0.152;2023-03-11T15:05:40;25.70;99.90
10175;DHT22;18221;38.704;0.152;2023-03-11T15:08:17;25.50;99.90
10175;DHT22;18221;38.704;0.152;2023-03-11T15:11:05;25.50;99.90
10175;DHT22;18221;38.704;0.152;2023-03-11T15:13:45;25.40;99.90
10175;DHT22;18221;38.704;0.152;2023-03-11T15:16:29;25.30;99.90
10175;DHT22;18221;38.704;0.152;2023-03-11T15:19:00;25.30;99.90
10175;DHT22;18221;38.704;0.152;2023-03-11T15:21:48;25.40;99.90
10175;DHT22;18221;38.704;0.152;2023-03-11T15:24:20;25.40;99.90
10175;DHT22;18221;38.704;0.152;2023-03-11T15:26:55;25.40;99.90
10175;DHT22;18221;38.704;0.152;2023-03-11T15:29:26;25.30;99.90
10175;DHT22;18221;38.704;0.152;2023-03-11T15:31:57;25.20;99.90
10175;DHT22;18221;38.704;0.152;2023-03-11T15:34:29;25.00;99.90
10175;DHT22;18221;38.704;0.152;2023-03-11T15:37:01;24.90;99.90
10175;DHT22;18221;38.704;0.152;2023-03-11T15:39:46;24.70;99.90
10175;DHT22;18221;38.704;0.152;2023-03-11T15:42:20;24.70;99.90
10175;DHT22;18221;38.704;0.152;2023-03-11T15:45:02;24.60;99.90
10175;DHT22;18221;38.704;0.152;2023-03-11T15:47:43;24.50;99.90
10175;DHT22;18221;38.704;0.152;2023-03-11T15:50:21;24.40;99.90
10175;DHT22;18221;38.704;0.152;2023-03-11T15:52:53;24.30;99.90
10175;DHT22;18221;38.704;0.152;2023-03-11T15:55:24;24.30;99.90
10175;DHT22;18221;38.704;0.152;2023-03-11T15:58:01;24.20;99.90
10175;DHT22;18221;38.704;0.152;2023-03-11T16:00:33;24.10;99.90
10175;DHT22;18221;38.704;0.152;2023-03-11T16:03:04;24.10;99.90
10175;DHT22;18221;38.704;0.152;2023-03-11T16:05:32;24.10;99.90
10175;DHT22;18221;38.704;0.152;2023-03-11T16:08:01;24.00;99.90
10175;DHT22;18221;38.704;0.152;2023-03-11T16:10:29;23.90;99.90
10175;DHT22;18221;38.704;0.152;2023-03-11T16:12:57;23.80;99.90
10175;DHT22;18221;38.704;0.152;2023-03-11T16:15:27;23.80;99.90
10175;DHT22;18221;38.704;0.152;2023-03-11T16:17:57;23.80;99.90
10175;DHT22;18221;38.704;0.152;2023-03-11T16:20:31;23.70;99.90
10175;DHT22;18221;38.704;0.152;2023-03-11T16:23:01;23.70;99.90